Latest Weather Observations for Coonabarabran Airport

IDN60801

Issued at 9:03 am EDT Thursday 19 October 2017 (issued every 30 minutes, with the page automatically refreshed every 10 minutes)

About weather observations | Map of weather stations | Latest weather observations for NSW | Other Formats
Station Details ID: 064017 Name: COONABARABRAN AIRPORT AWS Lat: -31.33 Lon: 149.27 Height: 645.0 m
Data from the previous 72 hours. | See also: Recent months at Coonabarabran Airport
Date/Time
EDT
Temp
°C
App
Temp
°C
Dew
Point
°C
Rel
Hum
%
Delta-T
°C
Wind Press
QNH
hPa
Press
MSL
hPa
Rain since
9am
mm
Dir  Spd
km/h
Gust
km/h
Spd
kts
Gust
kts
19/09:00am 19.0 14.8 9.8 55 5.0 N 22 35 12 19 1026.6 1024.6 0.0
19/08:30am 18.2 15.3 9.8 58 4.6 N 15 24 8 13 1026.5 1024.5 0.0
19/08:00am 17.2 14.2 9.1 59 4.3 N 15 20 8 11 1026.5 1024.5 0.0
19/07:30am 16.4 13.4 9.3 63 3.8 NNE 15 20 8 11 1026.2 1024.2 0.0
19/07:00am 14.6 13.3 9.8 73 2.6 N 7 15 4 8 1026.1 1024.1 0.0
19/06:30am 13.5 11.8 9.7 78 2.0 N 9 15 5 8 1025.5 1023.5 0.0
19/06:00am 13.0 11.2 9.6 80 1.8 N 9 15 5 8 1025.0 1023.0 0.0
19/05:30am 13.0 11.2 9.3 78 1.9 N 9 15 5 8 1024.6 1022.6 0.0
19/05:00am 13.7 11.6 9.6 76 2.2 N 11 15 6 8 1024.5 1022.5 0.0
19/04:30am 13.8 12.0 9.6 76 2.2 N 9 15 5 8 1024.6 1022.6 0.0
19/04:00am 14.6 11.0 9.8 73 2.6 NNE 19 24 10 13 1024.6 1022.6 0.0
19/03:30am 14.9 11.7 9.9 72 2.7 NNE 17 20 9 11 1024.8 1022.8 0.0
19/03:00am 15.3 11.8 10.1 71 2.8 NNE 19 22 10 12 1025.1 1023.1 0.0
19/02:30am 15.4 12.3 10.2 71 2.8 NNE 17 22 9 12 1025.3 1023.3 0.0
19/02:00am 16.0 12.5 10.3 69 3.1 NNE 19 26 10 14 1025.6 1023.7 0.0
19/01:30am 16.2 12.5 10.3 68 3.2 NE 20 22 11 12 1025.9 1023.9 0.0
19/01:00am 16.9 13.2 10.3 65 3.6 NNE 20 26 11 14 1026.2 1024.2 0.0
19/12:30am 17.4 13.7 10.3 63 3.9 NE 20 26 11 14 1026.0 1024.0 0.0
19/12:00am 18.3 14.2 10.2 59 4.4 NE 22 32 12 17 1026.0 1024.0 0.0
 
Date/Time
EDT
Temp
°C
App
Temp
°C
Dew
Point
°C
Rel
Hum
%
Delta-T
°C
Wind Press
QNH
hPa
Press
MSL
hPa
Rain since
9am
mm
Dir  Spd
km/h
Gust
km/h
Spd
kts
Gust
kts
18/11:30pm 18.8 14.7 10.1 57 4.8 NE 22 28 12 15 1025.9 1023.9 0.0
18/11:00pm 19.2 15.0 9.7 54 5.2 NE 22 32 12 17 1025.6 1023.7 0.0
18/10:30pm 19.3 15.4 9.5 53 5.4 NE 20 26 11 14 1025.5 1023.5 0.0
18/10:00pm 20.1 15.8 9.4 50 5.8 NE 22 28 12 15 1025.1 1023.1 0.0
18/09:30pm 20.5 16.5 9.1 48 6.2 ENE 20 26 11 14 1024.9 1022.9 0.0
18/09:00pm 21.3 17.4 8.6 44 6.9 ENE 19 24 10 13 1024.7 1022.7 0.0
18/08:30pm 21.6 17.9 8.1 42 7.3 ENE 17 20 9 11 1024.3 1022.3 0.0
18/08:00pm 21.7 17.9 7.5 40 7.6 NE 17 20 9 11 1023.7 1021.7 0.0
18/07:30pm 21.9 18.7 7.0 38 7.9 ENE 13 15 7 8 1023.3 1021.3 0.0
18/07:00pm 23.9 19.9 6.7 33 9.1 ENE 17 20 9 11 1023.1 1021.1 0.0
18/06:30pm 25.2 21.1 6.4 30 10.0 NE 17 24 9 13 1022.9 1020.8 0.0
18/06:00pm 26.0 22.0 6.6 29 10.4 ENE 17 24 9 13 1022.8 1020.7 0.0
18/05:30pm 26.3 23.1 6.9 29 10.5 ENE 13 24 7 13 1022.8 1020.7 0.0
18/05:00pm 26.2 21.9 6.8 29 10.5 NE 19 32 10 17 1022.7 1020.6 0.0
18/04:30pm 26.3 22.5 7.4 30 10.3 NE 17 24 9 13 1022.6 1020.5 0.0
18/04:00pm 26.4 22.9 7.4 30 10.4 E 15 26 8 14 1022.8 1020.7 0.0
18/03:30pm 27.2 22.6 8.1 30 10.6 NE 22 32 12 17 1023.1 1021.1 0.0
18/03:00pm 26.3 22.1 7.4 30 10.3 ENE 19 28 10 15 1023.3 1021.3 0.0
18/02:30pm 26.3 22.3 8.3 32 10.0 ENE 19 32 10 17 1023.6 1021.6 0.0
18/02:00pm 26.5 22.4 8.5 32 10.0 NE 20 30 11 16 1024.0 1022.0 0.0
18/01:30pm 24.6 21.2 7.7 34 9.2 ENE 15 30 8 16 1024.5 1022.5 0.0
18/01:00pm 24.5 20.3 7.6 34 9.1 NE 19 28 10 15 1025.0 1023.0 0.0
18/12:30pm 24.3 20.2 7.9 35 9.0 NE 19 24 10 13 1025.3 1023.3 0.0
18/12:00pm 23.1 18.8 8.0 38 8.2 ESE 20 28 11 15 1025.6 1023.7 0.0
18/11:30am 23.0 18.8 8.3 39 8.0 ENE 20 28 11 15 1026.0 1024.0 0.0
18/11:00am 22.5 18.1 9.0 42 7.4 ENE 22 30 12 16 1026.3 1024.3 0.0
18/10:30am 20.9 16.7 8.2 44 6.8 E 20 28 11 15 1026.6 1024.6 0.0
18/10:00am 19.9 15.7 8.3 47 6.2 ENE 20 30 11 16 1026.8 1024.8 0.0
18/09:30am 19.2 15.1 8.5 50 5.7 ENE 20 26 11 14 1027.0 1025.1 0.0
18/09:00am 18.3 13.4 8.6 53 5.2 E 24 33 13 18 1026.9 1024.9 0.0
18/08:30am 16.8 13.3 8.8 59 4.3 E 17 22 9 12 1026.6 1024.6 0.0
18/08:00am 15.8 12.4 9.0 64 3.6 E 17 24 9 13 1026.5 1024.5 0.0
18/07:30am 14.4 12.1 9.0 70 2.8 ESE 11 13 6 7 1026.3 1024.3 0.0
18/07:00am 12.8 10.9 9.1 78 1.9 SSE 9 17 5 9 1026.0 1024.0 0.0
18/06:30am 12.0 9.9 8.3 78 1.9 S 9 15 5 8 1025.4 1023.4 0.0
18/06:00am 12.0 9.9 8.3 78 1.9 SE 9 13 5 7 1025.0 1023.0 0.0
18/05:30am 12.2 10.1 8.1 76 2.1 ESE 9 15 5 8 1024.9 1022.9 0.0
18/05:00am 12.8 10.1 8.9 77 2.0 E 13 17 7 9 1024.6 1022.6 0.0
18/04:30am 12.7 10.2 8.2 74 2.3 E 11 17 6 9 1024.6 1022.6 0.0
18/04:00am 13.7 9.8 8.5 71 2.7 ENE 19 26 10 14 1024.5 1022.5 0.0
18/03:30am 13.6 10.0 8.2 70 2.8 ENE 17 20 9 11 1024.6 1022.6 0.0
18/03:00am 14.1 10.4 7.9 66 3.2 ENE 17 24 9 13 1024.9 1022.9 0.0
18/02:30am 14.4 10.6 7.7 64 3.4 ENE 17 24 9 13 1025.1 1023.1 0.0
18/02:00am 15.4 11.6 7.7 60 4.0 ENE 17 20 9 11 1025.4 1023.4 0.0
18/01:30am 15.9 12.3 8.2 60 4.0 ENE 17 24 9 13 1025.8 1023.8 0.0
18/01:00am 15.9 12.3 8.2 60 4.0 ENE 17 24 9 13 1026.2 1024.2 0.0
18/12:30am 16.5 12.5 8.2 58 4.4 ENE 19 24 10 13 1026.3 1024.3 0.0
18/12:00am 16.8 13.5 8.2 57 4.5 ENE 15 22 8 12 1026.2 1024.2 0.0
 
Date/Time
EDT
Temp
°C
App
Temp
°C
Dew
Point
°C
Rel
Hum
%
Delta-T
°C
Wind Press
QNH
hPa
Press
MSL
hPa
Rain since
9am
mm
Dir  Spd
km/h
Gust
km/h
Spd
kts
Gust
kts
17/11:30pm 17.1 14.2 8.3 56 4.6 ENE 13 17 7 9 1026.2 1024.2 0.0
17/11:00pm 17.1 13.4 8.0 55 4.8 ENE 17 26 9 14 1025.9 1023.9 0.0
17/10:30pm 17.6 13.3 7.9 53 5.1 ENE 20 30 11 16 1025.4 1023.4 0.0
17/10:00pm 18.1 14.6 8.7 54 5.0 ENE 17 22 9 12 1025.1 1023.1 0.0
17/09:30pm 18.1 14.9 8.4 53 5.2 ENE 15 19 8 10 1024.8 1022.8 0.0
17/09:00pm 19.3 15.1 8.3 49 5.9 ENE 20 28 11 15 1024.5 1022.5 0.0
17/08:30pm 19.8 15.9 8.5 48 6.1 ENE 19 26 10 14 1024.0 1022.0 0.0
17/08:00pm 20.4 16.2 8.4 46 6.4 NE 20 26 11 14 1023.6 1021.6 0.0
17/07:30pm 21.2 16.8 7.4 41 7.3 ENE 20 28 11 15 1023.2 1021.2 0.0
17/07:00pm 22.1 17.5 6.7 37 8.1 ENE 20 28 11 15 1022.8 1020.7 0.0
17/06:30pm 22.8 18.1 6.1 34 8.8 ENE 20 30 11 16 1022.5 1020.4 0.0
17/06:00pm 23.7 18.9 7.3 35 8.8 ENE 22 32 12 17 1022.1 1020.1 0.0
17/05:30pm 23.8 17.6 6.1 32 9.3 ENE 28 35 15 19 1022.1 1020.1 0.0
17/05:00pm 24.4 18.6 6.2 31 9.6 ENE 26 39 14 21 1022.0 1020.0 0.0
17/04:30pm 24.7 17.9 5.0 28 10.2 ENE 30 37 16 20 1022.1 1020.1 0.0
17/04:13pm 26.3 19.4 4.7 25 11.3 NE 30 48 16 26 1022.1 1020.1 0.0
17/04:00pm 25.7 19.0 5.8 28 10.5 NE 30 41 16 22 1022.3 1020.3 0.0
17/03:30pm 25.5 19.4 4.6 26 10.8 NE 26 35 14 19 1022.5 1020.4 0.0
17/03:14pm 25.6 19.3 5.8 28 10.5 NE 28 46 15 25 1022.3 1020.3 0.0
17/03:00pm 25.3 19.0 5.5 28 10.4 NE 28 44 15 24 1022.6 1020.5 0.0
17/02:45pm 26.3 20.2 4.7 25 11.3 ENE 26 46 14 25 1022.7 1020.6 0.0
17/02:30pm 25.7 19.2 4.8 26 10.9 NE 28 37 15 20 1022.9 1020.8 0.0
17/02:00pm 25.8 20.4 6.4 29 10.4 ENE 24 37 13 20 1023.2 1021.2 0.0
17/01:30pm 24.7 18.9 6.4 31 9.8 ENE 26 44 14 24 1023.5 1021.5 0.0
17/01:00pm 24.3 18.6 6.6 32 9.4 ENE 26 43 14 23 1023.7 1021.7 0.0
17/12:30pm 23.8 18.7 7.8 36 8.7 ENE 24 35 13 19 1024.0 1022.0 0.0
17/12:00pm 22.6 18.3 8.0 39 7.9 E 20 33 11 18 1024.5 1022.5 0.0
17/11:30am 22.2 16.8 8.0 40 7.7 ENE 26 39 14 21 1024.8 1022.8 0.0
17/11:00am 21.4 16.0 8.0 42 7.2 ENE 26 39 14 21 1025.2 1023.2 0.0
17/10:30am 20.7 15.3 8.0 44 6.8 E 26 43 14 23 1025.6 1023.7 0.0
17/10:00am 19.7 13.6 8.1 47 6.2 ENE 30 41 16 22 1025.5 1023.5 0.0
17/09:30am 19.5 14.5 8.2 48 6.0 E 24 35 13 19 1025.6 1023.7 0.0
17/09:00am 17.8 12.5 8.6 55 4.9 E 26 37 14 20 1025.5 1023.5 0.0
17/08:30am 15.8 11.6 8.3 61 3.9 ESE 20 33 11 18 1025.4 1023.4 0.0
17/08:00am 13.6 11.7 8.9 73 2.4 S 9 13 5 7 1025.4 1023.4 0.0
17/07:30am 12.4 10.4 8.7 78 1.9 S 9 15 5 8 1025.3 1023.3 0.0
17/07:00am 11.9 10.0 9.1 83 1.4 S 9 15 5 8 1025.2 1023.2 0.0
17/06:30am 10.8 8.9 9.1 89 0.9 S 9 15 5 8 1024.7 1022.7 0.0
17/06:00am 10.6 8.7 9.0 90 0.8 S 9 13 5 7 1024.6 1022.6 0.0
17/05:30am 10.7 8.8 9.1 90 0.8 S 9 13 5 7 1024.3 1022.3 0.0
17/05:00am 11.1 8.8 9.0 87 1.1 SSE 11 15 6 8 1024.3 1022.3 0.0
17/04:30am 11.1 8.5 9.4 89 0.9 SSE 13 15 7 8 1024.2 1022.1 0.0
17/04:00am 11.3 9.1 9.4 88 1.0 S 11 15 6 8 1023.8 1021.8 0.0
17/03:30am 11.5 8.9 9.2 86 1.2 SSE 13 17 7 9 1024.2 1022.1 0.0
17/03:00am 13.0 9.7 8.1 72 2.5 SE 15 20 8 11 1024.3 1022.3 0.0
17/02:30am 13.7 9.4 7.9 68 3.0 ESE 20 28 11 15 1024.6 1022.6 0.0
17/02:00am 13.8 9.5 8.0 68 3.0 ESE 20 28 11 15 1024.8 1022.8 0.0
17/01:30am 13.8 9.8 8.2 69 2.9 E 19 24 10 13 1024.9 1022.9 0.0
17/01:00am 14.3 10.2 8.5 68 3.0 E 20 28 11 15 1025.1 1023.1 0.0
17/12:30am 14.5 10.3 8.2 66 3.3 E 20 28 11 15 1025.2 1023.2 0.0
17/12:00am 15.2 11.0 8.4 64 3.5 ESE 20 26 11 14 1025.4 1023.4 0.0
 
Date/Time
EDT
Temp
°C
App
Temp
°C
Dew
Point
°C
Rel
Hum
%
Delta-T
°C
Wind Press
QNH
hPa
Press
MSL
hPa
Rain since
9am
mm
Dir  Spd
km/h
Gust
km/h
Spd
kts
Gust
kts
16/11:30pm 15.6 11.6 8.4 62 3.8 ESE 19 24 10 13 1025.2 1023.2 0.0
16/11:00pm 16.3 12.1 8.3 59 4.2 E 20 30 11 16 1024.9 1022.9 0.0
16/10:30pm 16.9 12.3 8.1 56 4.6 ESE 22 35 12 19 1024.7 1022.7 0.0
16/10:00pm 17.3 12.9 7.4 52 5.1 ESE 20 33 11 18 1024.6 1022.6 0.0
16/09:30pm 17.8 13.9 7.0 49 5.6 ESE 17 20 9 11 1024.5 1022.5 0.0
16/09:00pm 18.6 14.0 5.8 43 6.5 ESE 19 28 10 15 1023.9 1021.9 0.0
16/08:30pm 19.3 14.4 5.0 39 7.2 E 20 28 11 15 1023.5 1021.5 0.0
16/08:00pm 19.7 15.0 5.0 38 7.4 E 19 24 10 13 1023.3 1021.3 0.0
16/07:30pm 20.1 15.3 4.6 36 7.8 E 19 24 10 13 1023.1 1021.1 0.0
16/07:00pm 21.1 16.1 4.6 34 8.3 E 20 30 11 16 1022.8 1020.7 0.0
16/06:30pm 22.3 16.5 4.4 31 9.1 E 24 33 13 18 1022.5 1020.4 0.0
16/06:00pm 23.2 17.4 4.2 29 9.6 E 24 35 13 19 1022.3 1020.3 0.0
16/05:30pm 23.9 17.8 4.8 29 9.8 E 26 39 14 21 1022.2 1020.2 0.0
16/05:00pm 24.6 19.3 4.9 28 10.2 E 22 33 12 18 1021.9 1019.9 0.0
16/04:30pm 24.4 18.4 5.2 29 10.0 E 26 37 14 20 1021.8 1019.8 0.0
16/04:00pm 24.3 18.3 5.1 29 9.9 ESE 26 39 14 21 1021.9 1019.9 0.0
16/03:30pm 23.9 18.2 4.8 29 9.8 ESE 24 39 13 21 1022.1 1020.1 0.0
16/03:00pm 24.5 18.4 4.8 28 10.2 ESE 26 37 14 20 1022.5 1020.4 0.0
16/02:30pm 24.1 19.1 4.5 28 10.1 E 20 39 11 21 1022.8 1020.7 0.0
16/02:00pm 23.0 16.3 3.5 28 9.7 ENE 28 41 15 22 1023.2 1021.2 0.0
16/01:30pm 22.7 16.7 5.2 32 9.0 E 26 39 14 21 1023.8 1021.8 0.0
16/01:00pm 22.6 17.6 4.6 31 9.1 ESE 20 30 11 16 1024.0 1022.0 0.0
16/12:30pm 21.5 15.7 4.6 33 8.5 E 24 35 13 19 1024.4 1022.4 0.0
16/12:00pm 20.7 14.5 4.3 34 8.2 E 26 37 14 20 1025.1 1023.1 0.0
16/11:30am 20.2 14.9 5.1 37 7.6 E 22 30 12 16 1025.6 1023.7 0.0
16/11:00am 19.9 14.6 4.8 37 7.5 E 22 37 12 20 1025.6 1023.7 0.0
16/10:30am 18.5 12.1 3.2 36 7.4 E 26 35 14 19 1026.0 1024.0 0.0
16/10:00am 17.5 10.2 4.5 42 6.3 E 32 39 17 21 1025.9 1023.9 0.0
16/09:30am 16.7 10.7 5.3 47 5.7 E 26 33 14 18 1026.0 1024.0 0.0

Other Formats:

Comma delimited format used in spreadsheet applications
http://www.bom.gov.au/fwo/IDN60801/IDN60801.95728.axf

JavaScript Object Notation format (JSON) in row-major order
http://www.bom.gov.au/fwo/IDN60801/IDN60801.95728.json